»·PEaware :: N683MB KAUN-KBOK

N683MB :: KAUN-KBOK

FLIGHT INFORMATION

Flight Status: Arrived
Operator: Privately registered:
United States
More flights under this callsign
Pilot: Mike B. (36914)
Aircraft: PIPER PA-24 COMMANCHE
(PA24)
More flights by this aircraft type
Origin: KAUN Auburn Mun
United States
Destination: KBOK Brookings State
United States
More flights between these airports :: More routes between these airports
Route: YUBBA1 YUBBA V23 RBL V195 FOT V27 CEC
File this flight plan on PilotEdge
Remarks: Twitch.tv / moosestaffa - not currently streaming
Altitude:
(Current/Filed)
10,000ft
Speed:
(Current/Filed)
160kts
Departed: 12-Feb-24 07:35 PM
Arrived: 12-Feb-24 09:33 PM
Distance/Time
Traveled:
238nm/1:58
Distance/Time
To Go:
Arrived

Flight Plot

Page will automatically refresh every two minutes.

Flight plan parsing failed; only flown route is shown


Map Options




Map Legend


Flown Route
Filed Route
Departure Airport
Arrival Airport
Navaid (VOR, NDB)
Fix

Horizontal Profiles

Position Reports

Time Latitude Longitude Heading Altitude Ground
Speed
12-Feb-24 19:11 38.953591 -121.080250 344 1518ft 0kts
12-Feb-24 19:12 38.953591 -121.080250 344 1518ft 0kts
12-Feb-24 19:13 38.953591 -121.080250 344 1518ft 0kts
12-Feb-24 19:14 38.953591 -121.080250 344 1518ft 0kts
12-Feb-24 19:15 38.953591 -121.080250 344 1518ft 0kts
12-Feb-24 19:16 38.953591 -121.080250 344 1518ft 0kts
12-Feb-24 19:17 38.953591 -121.080250 344 1518ft 0kts
12-Feb-24 19:18 38.953591 -121.080250 344 1518ft 0kts
12-Feb-24 19:19 38.953591 -121.080250 344 1518ft 0kts
12-Feb-24 19:20 38.953591 -121.080250 344 1518ft 0kts
12-Feb-24 19:21 38.953591 -121.080250 344 1518ft 0kts
12-Feb-24 19:22 38.953591 -121.080250 344 1518ft 0kts
12-Feb-24 19:23 38.953591 -121.080250 344 1518ft 0kts
12-Feb-24 19:24 38.953591 -121.080250 344 1518ft 0kts
12-Feb-24 19:25 38.953591 -121.080250 344 1518ft 0kts
12-Feb-24 19:26 38.953591 -121.080250 344 1518ft 0kts
12-Feb-24 19:27 38.953591 -121.080250 344 1518ft 0kts
12-Feb-24 19:28 38.953591 -121.080250 344 1518ft 0kts
12-Feb-24 19:29 38.953591 -121.080250 344 1518ft 0kts
12-Feb-24 19:30 38.953962 -121.080210 94 1521ft 4kts
12-Feb-24 19:31 38.954670 -121.078293 84 1534ft 9kts
12-Feb-24 19:32 38.954895 -121.075739 63 1541ft 0kts
12-Feb-24 19:33 38.954895 -121.075738 63 1541ft 0kts
12-Feb-24 19:34 38.954198 -121.091429 268 1836ft 87kts
12-Feb-24 19:35 38.971975 -121.114764 322 3019ft 105kts
12-Feb-24 19:36 38.995203 -121.138348 316 4277ft 107kts
12-Feb-24 19:37 39.013472 -121.168454 281 5130ft 106kts
12-Feb-24 19:38 39.021370 -121.205090 279 5919ft 106kts
12-Feb-24 19:39 39.029048 -121.242299 281 6694ft 110kts
12-Feb-24 19:40 39.037801 -121.281130 279 7403ft 114kts
12-Feb-24 19:41 39.045492 -121.322405 278 7981ft 122kts
12-Feb-24 19:42 39.054155 -121.365435 281 8493ft 127kts
12-Feb-24 19:43 39.062498 -121.409615 286 9050ft 127kts
12-Feb-24 19:44 39.072458 -121.453507 282 9585ft 127kts
12-Feb-24 19:45 39.082084 -121.499095 279 9882ft 140kts
12-Feb-24 19:46 39.090156 -121.550448 278 9870ft 150kts
12-Feb-24 19:47 39.098208 -121.603398 275 9872ft 150kts
12-Feb-24 19:48 39.101141 -121.656844 271 9869ft 148kts
12-Feb-24 19:49 39.106363 -121.709269 275 9868ft 146kts
12-Feb-24 19:50 39.111907 -121.761316 281 9864ft 147kts
12-Feb-24 19:51 39.145712 -121.791321 337 9867ft 154kts
12-Feb-24 19:52 39.188148 -121.803467 346 9868ft 158kts
12-Feb-24 19:53 39.231855 -121.812575 347 9865ft 160kts
12-Feb-24 19:54 39.275604 -121.823194 345 9864ft 159kts
12-Feb-24 19:55 39.318935 -121.834911 343 9868ft 159kts
12-Feb-24 19:56 39.361254 -121.852058 335 9869ft 158kts
12-Feb-24 19:57 39.402283 -121.872520 334 9874ft 158kts
12-Feb-24 19:58 39.442372 -121.892954 334 10020ft 155kts
12-Feb-24 19:59 39.482977 -121.914230 332 10014ft 158kts
12-Feb-24 20:00 39.523965 -121.935555 333 10010ft 159kts
12-Feb-24 20:01 39.564992 -121.957010 334 10009ft 158kts
12-Feb-24 20:02 39.605887 -121.978103 333 10006ft 157kts
12-Feb-24 20:03 39.646488 -121.999292 334 10004ft 158kts
12-Feb-24 20:04 39.687413 -122.020490 333 10003ft 158kts
12-Feb-24 20:05 39.728431 -122.041969 331 10000ft 159kts
12-Feb-24 20:06 39.769415 -122.063386 333 9998ft 158kts
12-Feb-24 20:07 39.809996 -122.084679 333 9999ft 157kts
12-Feb-24 20:08 39.850544 -122.105894 333 10006ft 157kts
12-Feb-24 20:09 39.891123 -122.127155 333 10003ft 156kts
12-Feb-24 20:10 39.931553 -122.148326 333 10004ft 156kts
12-Feb-24 20:11 39.971945 -122.169556 333 10005ft 156kts
12-Feb-24 20:12 40.012276 -122.190775 333 10015ft 156kts
12-Feb-24 20:13 40.052426 -122.212011 333 10007ft 155kts
12-Feb-24 20:14 40.092241 -122.234066 320 10008ft 155kts
12-Feb-24 20:15 40.110523 -122.282366 286 10015ft 147kts
12-Feb-24 20:16 40.125565 -122.332245 289 10008ft 147kts
12-Feb-24 20:17 40.142369 -122.381054 298 10011ft 147kts
12-Feb-24 20:18 40.157621 -122.430877 288 10002ft 147kts
12-Feb-24 20:19 40.171927 -122.480932 288 10007ft 146kts
12-Feb-24 20:20 40.186207 -122.530929 288 9995ft 146kts
12-Feb-24 20:21 40.200567 -122.580760 288 9992ft 146kts
12-Feb-24 20:22 40.214932 -122.630740 289 9991ft 147kts
12-Feb-24 20:23 40.229533 -122.680769 289 9989ft 147kts
12-Feb-24 20:24 40.244134 -122.730719 289 9987ft 146kts
12-Feb-24 20:25 40.258599 -122.780470 289 9988ft 145kts
12-Feb-24 20:26 40.273080 -122.830157 289 9991ft 145kts
12-Feb-24 20:27 40.287631 -122.879826 290 9995ft 146kts
12-Feb-24 20:28 40.302283 -122.929925 290 9993ft 147kts
12-Feb-24 20:29 40.316668 -122.979903 290 9995ft 146kts
12-Feb-24 20:30 40.331388 -123.029949 290 9967ft 146kts
12-Feb-24 20:31 40.345969 -123.079821 290 9959ft 146kts
12-Feb-24 20:32 40.360543 -123.129565 291 9963ft 146kts
12-Feb-24 20:33 40.375135 -123.179395 290 9963ft 146kts
12-Feb-24 20:34 40.389633 -123.229476 290 9965ft 147kts
12-Feb-24 20:35 40.404235 -123.279570 291 9969ft 146kts
12-Feb-24 20:36 40.418876 -123.329511 291 9971ft 146kts
12-Feb-24 20:37 40.433353 -123.379420 290 9972ft 146kts
12-Feb-24 20:38 40.447899 -123.429569 291 9973ft 147kts
12-Feb-24 20:39 40.461955 -123.479864 290 9973ft 147kts
12-Feb-24 20:40 40.475917 -123.530402 290 9977ft 147kts
12-Feb-24 20:41 40.489991 -123.580753 290 9978ft 146kts
12-Feb-24 20:42 40.504017 -123.631069 290 9981ft 146kts
12-Feb-24 20:43 40.517989 -123.681557 290 9981ft 147kts
12-Feb-24 20:44 40.532002 -123.731982 290 9983ft 147kts
12-Feb-24 20:45 40.545925 -123.782190 290 9988ft 145kts
12-Feb-24 20:47 40.559707 -123.831905 291 9989ft 144kts
12-Feb-24 20:48 40.573603 -123.881942 290 9988ft 145kts
12-Feb-24 20:49 40.587584 -123.932277 290 9988ft 146kts
12-Feb-24 20:50 40.601436 -123.982303 290 9990ft 146kts
12-Feb-24 20:51 40.615340 -124.032372 290 9993ft 145kts
12-Feb-24 20:52 40.629188 -124.082416 290 9990ft 146kts
12-Feb-24 20:53 40.643079 -124.132595 290 9992ft 146kts
12-Feb-24 20:54 40.656988 -124.182892 290 9992ft 145kts
12-Feb-24 20:55 40.671959 -124.232163 313 9985ft 145kts
12-Feb-24 20:56 40.710291 -124.239919 4 9995ft 151kts
12-Feb-24 20:57 40.752039 -124.233981 357 9996ft 150kts
12-Feb-24 20:58 40.793871 -124.233986 356 9993ft 150kts
12-Feb-24 20:59 40.835760 -124.234114 356 9992ft 150kts
12-Feb-24 21:00 40.877468 -124.234210 356 9986ft 150kts
12-Feb-24 21:01 40.919324 -124.234303 356 9994ft 150kts
12-Feb-24 21:02 40.961190 -124.234388 356 9991ft 150kts
12-Feb-24 21:03 41.003087 -124.234396 356 9989ft 150kts
12-Feb-24 21:04 41.044977 -124.234445 356 9981ft 150kts
12-Feb-24 21:05 41.086749 -124.234471 356 9991ft 149kts
12-Feb-24 21:06 41.128338 -124.234477 356 9989ft 150kts
12-Feb-24 21:07 41.170263 -124.235280 353 9993ft 150kts
12-Feb-24 21:08 41.212024 -124.238018 354 9990ft 150kts
12-Feb-24 21:08 41.246795 -124.239394 354 9992ft 150kts
12-Feb-24 21:09 41.288786 -124.240283 355 9993ft 150kts
12-Feb-24 21:11 41.337641 -124.240631 355 9988ft 151kts
12-Feb-24 21:12 41.379804 -124.240702 356 9988ft 151kts
12-Feb-24 21:13 41.421846 -124.240745 355 9988ft 151kts
12-Feb-24 21:13 41.456743 -124.240739 355 9989ft 151kts
12-Feb-24 21:14 41.498820 -124.240793 355 9993ft 151kts
12-Feb-24 21:15 41.542050 -124.240993 355 9242ft 158kts
12-Feb-24 21:16 41.585785 -124.240977 356 8389ft 157kts
12-Feb-24 21:18 41.636850 -124.240945 356 7391ft 154kts
12-Feb-24 21:18 41.672736 -124.240943 357 6415ft 154kts
12-Feb-24 21:19 41.715454 -124.240916 358 5309ft 154kts
12-Feb-24 21:20 41.758117 -124.241360 358 4248ft 151kts
12-Feb-24 21:21 41.796886 -124.243831 353 4000ft 135kts
12-Feb-24 21:22 41.836001 -124.249782 353 3983ft 140kts
12-Feb-24 21:23 41.874415 -124.255186 353 3970ft 132kts
12-Feb-24 21:24 41.907484 -124.259677 353 3999ft 121kts
12-Feb-24 21:25 41.941744 -124.264291 353 3982ft 123kts
12-Feb-24 21:26 41.975360 -124.271992 324 3805ft 130kts
12-Feb-24 21:27 42.004353 -124.301483 321 2982ft 131kts
12-Feb-24 21:28 42.033894 -124.332513 321 1941ft 131kts
12-Feb-24 21:29 42.057859 -124.329964 78 1446ft 123kts
12-Feb-24 21:30 42.053841 -124.288575 74 1032ft 82kts
12-Feb-24 21:31 42.072705 -124.288582 322 451ft 76kts
12-Feb-24 21:32 42.076731 -124.291895 143 460ft 9kts
12-Feb-24 21:33 42.076750 -124.290875 79 458ft 2kts
12-Feb-24 21:34 42.076377 -124.290736 243 457ft 0kts
12-Feb-24 21:35 42.076377 -124.290736 243 457ft 0kts
12-Feb-24 21:36 42.076377 -124.290736 243 457ft 0kts
12-Feb-24 21:37 42.076377 -124.290736 243 457ft 0kts

Navigation Log

Ident Type
Flight plan parsing failed, navigation log unavailable